createdAt,value
2019-01-05T00:04:16.386Z,99.90
2019-01-05T00:06:51.703Z,99.90
2019-01-05T00:09:27.445Z,99.90
2019-01-05T00:12:04.852Z,99.90
2019-01-05T00:15:06.014Z,99.90
2019-01-05T00:20:58.963Z,99.90
2019-01-05T00:23:11.371Z,99.90
2019-01-05T00:25:56.046Z,99.90
2019-01-05T00:28:33.165Z,99.90
2019-01-05T00:31:11.659Z,99.90
2019-01-05T00:33:52.619Z,99.90
2019-01-05T00:36:28.378Z,99.90
2019-01-05T00:39:46.604Z,99.90
2019-01-05T00:41:46.164Z,99.90
2019-01-05T00:49:29.954Z,99.90
2019-01-05T00:51:57.356Z,99.90
2019-01-05T00:54:42.969Z,99.90
2019-01-05T00:57:26.992Z,99.90
2019-01-05T01:00:20.733Z,99.90
2019-01-05T01:02:51.840Z,99.90
2019-01-05T01:05:29.439Z,99.90
2019-01-05T01:11:09.248Z,99.90
2019-01-05T01:13:54.866Z,99.90
2019-01-05T01:16:23.906Z,99.90
2019-01-05T01:19:04.786Z,99.90
2019-01-05T01:21:41.291Z,99.90
2019-01-05T01:24:21.561Z,99.90
2019-01-05T01:27:07.357Z,99.90
2019-01-05T01:32:29.821Z,99.90
2019-01-05T01:34:54.635Z,99.90
2019-01-05T01:37:38.423Z,99.90
2019-01-05T01:43:09.133Z,99.90
2019-01-05T01:48:21.585Z,99.90
2019-01-05T01:50:56.753Z,99.90
2019-01-05T01:53:21.142Z,99.90
2019-01-05T01:55:48.446Z,99.90
2019-01-05T01:58:14.028Z,99.90
2019-01-05T02:00:55.162Z,99.90
2019-01-05T02:05:56.642Z,99.90
2019-01-05T02:11:02.432Z,99.90
2019-01-05T02:13:30.328Z,99.90
2019-01-05T02:16:25.626Z,99.90
2019-01-05T02:18:50.166Z,99.90
2019-01-05T02:21:30.355Z,99.90
2019-01-05T02:24:33.232Z,99.90
2019-01-05T02:27:35.011Z,99.90
2019-01-05T02:30:38.135Z,99.90
2019-01-05T02:33:13.293Z,99.90
2019-01-05T02:36:00.163Z,99.90
2019-01-05T02:39:07.364Z,99.90
2019-01-05T02:42:09.399Z,99.90
2019-01-05T02:44:45.641Z,99.90
2019-01-05T02:47:21.935Z,99.90
2019-01-05T02:50:16.600Z,99.90
2019-01-05T02:52:52.003Z,99.90
2019-01-05T02:57:56.423Z,99.90
2019-01-05T03:00:39.432Z,99.90
2019-01-05T03:03:15.071Z,99.90
2019-01-05T03:06:00.010Z,99.90
2019-01-05T03:08:28.206Z,99.90
2019-01-05T03:11:04.447Z,99.90
2019-01-05T03:13:39.809Z,99.90
2019-01-05T03:16:16.117Z,99.90
2019-01-05T03:18:52.632Z,99.90
2019-01-05T03:21:55.995Z,99.90
2019-01-05T03:24:39.887Z,99.90
2019-01-05T03:27:11.634Z,99.90
2019-01-05T03:32:06.708Z,99.90
2019-01-05T03:35:13.384Z,99.90
2019-01-05T03:38:16.358Z,99.90
2019-01-05T03:40:51.995Z,99.90
2019-01-05T03:43:32.811Z,99.90
2019-01-05T03:46:34.754Z,99.90
2019-01-05T03:49:54.403Z,99.90
2019-01-05T03:55:41.149Z,99.90
2019-01-05T03:58:18.918Z,99.90
2019-01-05T04:00:56.799Z,99.90
2019-01-05T04:03:40.619Z,99.90
2019-01-05T04:06:17.336Z,99.90
2019-01-05T04:09:19.465Z,99.90
2019-01-05T04:12:21.600Z,99.90
2019-01-05T04:14:57.064Z,99.90
2019-01-05T04:17:33.258Z,99.90
2019-01-05T04:20:12.275Z,99.90
2019-01-05T04:22:48.178Z,99.90
2019-01-05T04:25:49.855Z,99.90
2019-01-05T04:28:52.500Z,99.90
2019-01-05T04:31:54.400Z,99.90
2019-01-05T04:34:56.135Z,99.90
2019-01-05T04:37:32.725Z,99.90
2019-01-05T04:40:13.911Z,99.90
2019-01-05T04:42:44.529Z,99.90
2019-01-05T04:45:34.012Z,99.90
2019-01-05T04:48:26.631Z,99.90
2019-01-05T04:51:28.306Z,99.90
2019-01-05T04:54:03.394Z,99.90
2019-01-05T04:57:01.750Z,99.90
2019-01-05T04:59:54.019Z,99.90
2019-01-05T05:05:04.757Z,99.90
2019-01-05T05:10:31.274Z,99.90
2019-01-05T05:13:17.809Z,99.90
2019-01-05T05:15:54.201Z,99.90
2019-01-05T05:21:10.307Z,99.90
2019-01-05T05:23:51.250Z,99.90
2019-01-05T05:26:54.353Z,99.90
2019-01-05T05:32:16.544Z,99.90
2019-01-05T05:34:52.433Z,99.90
2019-01-05T05:39:41.148Z,99.90
2019-01-05T05:42:17.870Z,99.90
2019-01-05T05:45:00.885Z,99.90
2019-01-05T05:47:29.109Z,99.90
2019-01-05T05:52:54.541Z,99.90
2019-01-05T06:00:33.770Z,99.90
2019-01-05T06:03:15.641Z,99.90
2019-01-05T06:05:55.414Z,99.90
2019-01-05T06:10:48.610Z,99.90
2019-01-05T06:13:23.870Z,99.90
2019-01-05T06:16:00.061Z,99.90
2019-01-05T06:18:48.945Z,99.90
2019-01-05T06:24:02.460Z,99.90
2019-01-05T06:26:49.212Z,99.90
2019-01-05T06:29:29.289Z,99.90
2019-01-05T06:34:54.892Z,99.90
2019-01-05T06:37:32.528Z,99.90
2019-01-05T06:40:15.386Z,99.90
2019-01-05T06:42:55.750Z,99.90
2019-01-05T06:45:30.701Z,99.90
2019-01-05T06:47:59.213Z,99.90
2019-01-05T06:50:34.130Z,99.90
2019-01-05T06:55:52.655Z,99.90
2019-01-05T06:58:45.744Z,99.90
2019-01-05T07:03:56.319Z,99.90
2019-01-05T07:06:32.431Z,99.90
2019-01-05T07:09:09.049Z,99.90
2019-01-05T07:12:11.564Z,99.90
2019-01-05T07:17:35.870Z,99.90
2019-01-05T07:20:20.709Z,99.90
2019-01-05T07:25:49.477Z,99.90
2019-01-05T07:28:28.077Z,99.90
2019-01-05T07:31:31.660Z,99.90
2019-01-05T07:34:34.736Z,99.90
2019-01-05T07:37:12.691Z,99.90
2019-01-05T07:40:04.161Z,99.90
2019-01-05T07:42:45.086Z,99.90
2019-01-05T07:45:25.775Z,99.90
2019-01-05T07:48:29.455Z,99.90
2019-01-05T07:51:32.947Z,99.90
2019-01-05T07:54:08.704Z,99.90
2019-01-05T07:56:48.321Z,99.90
2019-01-05T07:59:27.570Z,99.90
2019-01-05T08:02:09.722Z,99.90
2019-01-05T08:04:45.584Z,99.90
2019-01-05T08:10:17.387Z,99.90
2019-01-05T08:12:54.947Z,99.90
2019-01-05T08:15:29.960Z,99.90
2019-01-05T08:18:09.674Z,99.90
2019-01-05T08:20:46.609Z,99.90
2019-01-05T08:23:22.232Z,99.90
2019-01-05T08:25:57.705Z,99.90
2019-01-05T08:28:35.807Z,99.90
2019-01-05T08:31:13.835Z,99.90
2019-01-05T08:33:57.947Z,99.90
2019-01-05T08:36:40.146Z,99.90
2019-01-05T08:45:52.010Z,99.90
2019-01-05T08:48:24.207Z,99.90
2019-01-05T08:50:53.511Z,99.90
2019-01-05T08:53:32.874Z,99.90
2019-01-05T08:56:12.923Z,99.90
2019-01-05T08:58:55.077Z,99.90
2019-01-05T09:01:30.604Z,99.90
2019-01-05T09:04:35.431Z,99.80
2019-01-05T09:07:37.650Z,99.80
2019-01-05T09:10:16.277Z,99.70
2019-01-05T09:13:20.818Z,99.70
2019-01-05T09:16:01.228Z,99.30
2019-01-05T09:18:36.022Z,99.60
2019-01-05T09:21:37.760Z,99.70
2019-01-05T09:24:41.198Z,99.50
2019-01-05T09:27:20.571Z,99.40
2019-01-05T09:33:32.145Z,99.40
2019-01-05T09:35:56.054Z,99.40
2019-01-05T09:38:32.359Z,99.30
2019-01-05T09:44:53.317Z,99.40
2019-01-05T09:47:14.480Z,99.40
2019-01-05T09:49:37.466Z,99.40
2019-01-05T09:55:16.153Z,99.70
2019-01-05T09:58:19.326Z,99.70
2019-01-05T10:01:24.345Z,99.30
2019-01-05T10:04:27.119Z,99.10
2019-01-05T10:07:02.214Z,99.50
2019-01-05T10:09:27.612Z,99.40
2019-01-05T10:12:18.781Z,99.50
2019-01-05T10:18:18.462Z,99.40
2019-01-05T10:21:20.395Z,99.20
2019-01-05T10:24:23.453Z,99.00
2019-01-05T10:27:07.049Z,98.90
2019-01-05T10:29:43.373Z,98.80
2019-01-05T10:32:46.601Z,98.70
2019-01-05T10:35:51.752Z,99.00
2019-01-05T10:38:56.294Z,99.20
2019-01-05T10:41:30.346Z,99.40
2019-01-05T10:46:43.480Z,99.20
2019-01-05T10:52:29.209Z,98.60
2019-01-05T10:55:31.627Z,98.90
2019-01-05T10:58:07.737Z,98.20
2019-01-05T11:01:05.875Z,98.30
2019-01-05T11:03:06.103Z,98.40
2019-01-05T11:05:44.797Z,98.20
2019-01-05T11:11:02.627Z,98.30
2019-01-05T11:16:28.395Z,98.00
2019-01-05T11:19:31.298Z,98.20
2019-01-05T11:22:31.585Z,98.10
2019-01-05T11:27:54.701Z,97.90
2019-01-05T11:33:57.046Z,97.70
2019-01-05T11:39:54.122Z,97.20
2019-01-05T11:45:52.838Z,97.40
2019-01-05T11:49:24.574Z,97.30
2019-01-05T11:51:23.825Z,97.50
2019-01-05T11:54:05.213Z,97.10
2019-01-05T11:59:03.815Z,97.00
2019-01-05T12:01:40.724Z,97.30
2019-01-05T12:08:05.551Z,97.20
2019-01-05T12:11:09.528Z,96.70
2019-01-05T12:14:13.724Z,96.50
2019-01-05T12:17:19.223Z,96.70
2019-01-05T12:20:07.508Z,96.60
2019-01-05T12:23:23.647Z,96.50
2019-01-05T12:29:32.134Z,96.90
2019-01-05T12:32:33.783Z,96.50
2019-01-05T12:35:35.539Z,96.20
2019-01-05T12:38:37.244Z,96.50
2019-01-05T12:41:18.081Z,96.60
2019-01-05T12:44:20.148Z,96.80
2019-01-05T12:47:22.117Z,97.00
2019-01-05T12:50:28.732Z,97.20
2019-01-05T12:53:30.423Z,97.10
2019-01-05T12:56:44.358Z,97.20
2019-01-05T12:59:11.960Z,97.40
2019-01-05T13:02:13.674Z,97.50
2019-01-05T13:05:30.629Z,97.40
2019-01-05T13:08:33.805Z,97.70
2019-01-05T13:11:08.537Z,97.90
2019-01-05T13:13:45.095Z,97.70
2019-01-05T13:16:26.815Z,97.80
2019-01-05T13:19:38.742Z,97.70
2019-01-05T13:22:38.573Z,97.80
2019-01-05T13:25:31.184Z,97.60
2019-01-05T13:27:47.238Z,97.40
2019-01-05T13:30:29.733Z,97.00
2019-01-05T13:33:31.760Z,97.00
2019-01-05T13:36:36.967Z,97.30
2019-01-05T13:39:42.151Z,97.60
2019-01-05T13:43:00.976Z,97.20
2019-01-05T13:45:37.805Z,97.30
2019-01-05T13:48:09.220Z,97.20
2019-01-05T13:53:53.021Z,97.70
2019-01-05T13:56:57.756Z,97.60
2019-01-05T13:59:36.355Z,97.80
2019-01-05T14:02:03.006Z,98.20
2019-01-05T14:05:05.306Z,98.20
2019-01-05T14:10:29.168Z,98.40
2019-01-05T14:13:07.008Z,98.50
2019-01-05T14:15:30.020Z,98.60
2019-01-05T14:20:42.787Z,99.00
2019-01-05T14:23:23.023Z,99.10
2019-01-05T14:26:18.143Z,99.40
2019-01-05T14:29:23.969Z,99.50
2019-01-05T14:31:52.766Z,99.60
2019-01-05T14:34:40.686Z,99.80
2019-01-05T14:37:08.340Z,99.90
2019-01-05T14:39:51.086Z,99.90
2019-01-05T14:42:27.761Z,99.90
2019-01-05T14:47:46.725Z,99.90
2019-01-05T14:50:37.350Z,99.90
2019-01-05T14:53:04.111Z,99.90
2019-01-05T14:58:31.275Z,99.90
2019-01-05T15:03:47.542Z,99.90
2019-01-05T15:06:06.904Z,99.90
2019-01-05T15:11:27.335Z,99.70
2019-01-05T15:16:51.467Z,99.80
2019-01-05T15:19:06.720Z,99.90
2019-01-05T15:21:43.822Z,99.90
2019-01-05T15:24:40.226Z,99.90
2019-01-05T15:33:22.844Z,99.90
2019-01-05T15:35:48.890Z,99.50
2019-01-05T15:38:31.526Z,99.90
2019-01-05T15:41:13.204Z,99.90
2019-01-05T15:44:02.485Z,99.90
2019-01-05T15:46:31.044Z,99.90
2019-01-05T15:49:11.007Z,99.90
2019-01-05T15:51:53.530Z,99.90
2019-01-05T15:54:36.678Z,99.90
2019-01-05T15:57:22.326Z,99.90
2019-01-05T16:00:26.488Z,99.90
2019-01-05T16:03:01.558Z,99.90
2019-01-05T16:05:55.817Z,99.90
2019-01-05T16:16:46.187Z,99.90
2019-01-05T16:19:20.660Z,99.90
2019-01-05T16:22:18.940Z,99.90
2019-01-05T16:27:27.613Z,99.90
2019-01-05T16:30:15.984Z,99.90
2019-01-05T16:33:00.577Z,99.90
2019-01-05T16:35:43.311Z,99.90
2019-01-05T16:38:20.805Z,99.90
2019-01-05T16:40:45.207Z,99.90
2019-01-05T16:43:27.829Z,99.90
2019-01-05T16:46:20.062Z,99.90
2019-01-05T16:48:59.200Z,99.90
2019-01-05T16:51:24.998Z,99.90
2019-01-05T16:53:48.749Z,99.90
2019-01-05T16:56:24.368Z,99.90
2019-01-05T16:58:53.892Z,99.90
2019-01-05T17:02:03.512Z,99.90
2019-01-05T17:04:24.346Z,99.90
2019-01-05T17:07:04.493Z,99.90
2019-01-05T17:12:20.722Z,99.90
2019-01-05T17:14:48.011Z,99.90
2019-01-05T17:17:35.597Z,99.90
2019-01-05T17:20:25.760Z,99.90
2019-01-05T17:26:27.836Z,99.90
2019-01-05T17:34:49.689Z,99.90
2019-01-05T17:37:47.390Z,99.60
2019-01-05T17:40:24.779Z,99.90
2019-01-05T17:43:00.056Z,99.80
2019-01-05T17:45:56.682Z,99.90
2019-01-05T17:48:20.269Z,99.90
2019-01-05T17:51:00.192Z,99.90
2019-01-05T17:56:13.927Z,99.90
2019-01-05T17:59:09.558Z,99.90
2019-01-05T18:01:45.196Z,99.90
2019-01-05T18:04:22.729Z,99.80
2019-01-05T18:07:03.019Z,99.90
2019-01-05T18:09:46.968Z,99.60
2019-01-05T18:12:32.147Z,99.90
2019-01-05T18:15:08.515Z,99.90
2019-01-05T18:17:49.679Z,99.70
2019-01-05T18:20:50.925Z,99.90
2019-01-05T18:29:39.095Z,99.90
2019-01-05T18:34:47.943Z,99.70
2019-01-05T18:37:34.308Z,99.40
2019-01-05T18:40:08.954Z,99.40
2019-01-05T18:44:59.325Z,99.90
2019-01-05T18:47:23.392Z,99.60
2019-01-05T18:50:07.259Z,99.70
2019-01-05T18:52:42.264Z,99.70
2019-01-05T18:57:42.694Z,99.80
2019-01-05T18:59:56.821Z,99.90
2019-01-05T19:02:21.777Z,99.70
2019-01-05T19:04:45.839Z,99.90
2019-01-05T19:07:45.423Z,99.80
2019-01-05T19:09:56.408Z,99.90
2019-01-05T19:12:31.585Z,99.50
2019-01-05T19:15:12.969Z,99.50
2019-01-05T19:20:59.700Z,99.70
2019-01-05T19:24:00.924Z,99.90
2019-01-05T19:26:43.932Z,99.80
2019-01-05T19:32:35.770Z,99.80
2019-01-05T19:35:19.500Z,99.70
2019-01-05T19:37:59.320Z,99.90
2019-01-05T19:40:38.066Z,99.90
2019-01-05T19:43:21.833Z,99.90
2019-01-05T19:45:55.662Z,99.90
2019-01-05T19:51:59.524Z,99.90
2019-01-05T19:57:43.038Z,99.90
2019-01-05T20:00:40.684Z,99.90
2019-01-05T20:03:20.726Z,99.90
2019-01-05T20:06:05.877Z,99.90
2019-01-05T20:09:12.306Z,99.90
2019-01-05T20:11:28.493Z,99.90
2019-01-05T20:22:50.381Z,99.90
2019-01-05T20:25:55.450Z,99.90
2019-01-05T20:31:22.444Z,99.90
2019-01-05T20:33:59.914Z,99.90
2019-01-05T20:36:37.181Z,99.90
2019-01-05T20:44:36.176Z,99.90
2019-01-05T20:47:16.073Z,99.90
2019-01-05T20:50:23.321Z,99.90
2019-01-05T20:55:18.480Z,99.90
2019-01-05T20:57:55.310Z,99.90
2019-01-05T21:01:13.309Z,99.90
2019-01-05T21:03:45.216Z,99.90
2019-01-05T21:06:23.833Z,99.90
2019-01-05T21:11:57.700Z,99.90
2019-01-05T21:19:27.986Z,99.90
2019-01-05T21:25:04.777Z,99.90
2019-01-05T21:27:50.086Z,99.90
2019-01-05T21:31:00.066Z,99.90
2019-01-05T21:33:25.901Z,99.90
2019-01-05T21:36:32.323Z,99.90
2019-01-05T21:38:55.527Z,99.90
2019-01-05T21:45:54.630Z,99.90
2019-01-05T21:47:32.621Z,99.90
2019-01-05T21:58:46.817Z,99.90
2019-01-05T22:01:57.802Z,99.90
2019-01-05T22:04:10.975Z,99.90
2019-01-05T22:09:45.821Z,99.70
2019-01-05T22:12:23.691Z,99.90
2019-01-05T22:15:35.723Z,99.80
2019-01-05T22:23:02.419Z,99.80
2019-01-05T22:25:40.150Z,99.80
2019-01-05T22:28:21.656Z,99.70
2019-01-05T22:31:01.369Z,99.80
2019-01-05T22:33:41.201Z,99.60
2019-01-05T22:36:23.413Z,99.70
2019-01-05T22:39:22.083Z,99.40
2019-01-05T22:44:45.169Z,99.60
2019-01-05T22:47:22.587Z,99.50
2019-01-05T22:56:02.321Z,99.90
2019-01-05T22:58:17.087Z,99.70
2019-01-05T23:00:57.700Z,99.80
2019-01-05T23:06:31.380Z,99.80
2019-01-05T23:09:06.908Z,99.70
2019-01-05T23:12:13.308Z,99.30
2019-01-05T23:14:53.660Z,99.70
2019-01-05T23:19:31.432Z,99.40
2019-01-05T23:22:16.205Z,99.40
2019-01-05T23:24:49.322Z,99.10
2019-01-05T23:27:34.209Z,98.90
2019-01-05T23:30:14.282Z,98.90
2019-01-05T23:35:44.469Z,98.50
2019-01-05T23:38:40.208Z,98.50
2019-01-05T23:41:08.365Z,98.20
2019-01-05T23:43:43.732Z,98.20
2019-01-05T23:46:19.328Z,98.40
2019-01-05T23:49:12.851Z,98.60
2019-01-05T23:51:38.231Z,98.30
2019-01-05T23:54:13.977Z,98.20
2019-01-05T23:56:49.106Z,98.20
2019-01-05T23:59:30.014Z,98.20
